sensor_id;sensor_type;location;lat;lon;timestamp;P1;durP1;ratioP1;P2;durP2;ratioP2
8139;SDS011;4111;50.972;7.072;2023-11-21T00:00:52;9.07;;;5.13;;
8139;SDS011;4111;50.972;7.072;2023-11-21T00:03:18;6.07;;;4.83;;
8139;SDS011;4111;50.972;7.072;2023-11-21T00:05:45;10.60;;;5.73;;
8139;SDS011;4111;50.972;7.072;2023-11-21T00:08:12;8.03;;;5.40;;
8139;SDS011;4111;50.972;7.072;2023-11-21T00:10:38;6.83;;;5.57;;
8139;SDS011;4111;50.972;7.072;2023-11-21T00:13:05;8.17;;;5.40;;
8139;SDS011;4111;50.972;7.072;2023-11-21T00:15:31;7.90;;;5.87;;
8139;SDS011;4111;50.972;7.072;2023-11-21T00:17:58;8.77;;;6.23;;
8139;SDS011;4111;50.972;7.072;2023-11-21T00:20:24;9.00;;;5.87;;
8139;SDS011;4111;50.972;7.072;2023-11-21T00:22:51;10.10;;;6.27;;
8139;SDS011;4111;50.972;7.072;2023-11-21T00:25:17;13.10;;;5.63;;
8139;SDS011;4111;50.972;7.072;2023-11-21T00:27:44;10.37;;;5.70;;
8139;SDS011;4111;50.972;7.072;2023-11-21T00:30:10;13.03;;;6.57;;
8139;SDS011;4111;50.972;7.072;2023-11-21T00:32:38;10.80;;;5.80;;
8139;SDS011;4111;50.972;7.072;2023-11-21T00:35:04;10.27;;;6.37;;
8139;SDS011;4111;50.972;7.072;2023-11-21T00:37:32;11.83;;;6.30;;
8139;SDS011;4111;50.972;7.072;2023-11-21T00:39:58;10.43;;;6.30;;
8139;SDS011;4111;50.972;7.072;2023-11-21T00:42:25;8.07;;;6.17;;
8139;SDS011;4111;50.972;7.072;2023-11-21T00:44:51;10.57;;;6.50;;
8139;SDS011;4111;50.972;7.072;2023-11-21T00:47:17;9.30;;;6.57;;
8139;SDS011;4111;50.972;7.072;2023-11-21T00:49:44;8.50;;;6.30;;
8139;SDS011;4111;50.972;7.072;2023-11-21T00:52:10;10.40;;;6.07;;
8139;SDS011;4111;50.972;7.072;2023-11-21T00:54:37;9.40;;;6.17;;
8139;SDS011;4111;50.972;7.072;2023-11-21T00:57:03;9.57;;;5.87;;
8139;SDS011;4111;50.972;7.072;2023-11-21T00:59:30;11.87;;;5.60;;
8139;SDS011;4111;50.972;7.072;2023-11-21T01:01:56;9.47;;;5.87;;
8139;SDS011;4111;50.972;7.072;2023-11-21T01:04:26;11.37;;;6.40;;
8139;SDS011;4111;50.972;7.072;2023-11-21T01:06:53;11.77;;;6.30;;
8139;SDS011;4111;50.972;7.072;2023-11-21T01:09:20;14.53;;;6.60;;
8139;SDS011;4111;50.972;7.072;2023-11-21T01:11:46;10.43;;;6.70;;
8139;SDS011;4111;50.972;7.072;2023-11-21T01:14:12;10.70;;;6.10;;
8139;SDS011;4111;50.972;7.072;2023-11-21T01:16:39;9.93;;;6.47;;
8139;SDS011;4111;50.972;7.072;2023-11-21T01:19:06;8.37;;;6.00;;
8139;SDS011;4111;50.972;7.072;2023-11-21T01:21:32;7.63;;;6.10;;
8139;SDS011;4111;50.972;7.072;2023-11-21T01:24:00;12.27;;;6.63;;
8139;SDS011;4111;50.972;7.072;2023-11-21T01:26:26;10.33;;;6.23;;
8139;SDS011;4111;50.972;7.072;2023-11-21T01:28:53;10.47;;;6.70;;
8139;SDS011;4111;50.972;7.072;2023-11-21T01:31:19;12.90;;;7.20;;
8139;SDS011;4111;50.972;7.072;2023-11-21T01:33:47;12.23;;;7.23;;
8139;SDS011;4111;50.972;7.072;2023-11-21T01:39:59;12.00;;;7.00;;
8139;SDS011;4111;50.972;7.072;2023-11-21T01:42:27;11.73;;;7.07;;
8139;SDS011;4111;50.972;7.072;2023-11-21T01:44:55;11.10;;;6.73;;
8139;SDS011;4111;50.972;7.072;2023-11-21T01:47:22;10.93;;;8.10;;
8139;SDS011;4111;50.972;7.072;2023-11-21T01:49:48;9.50;;;7.23;;
8139;SDS011;4111;50.972;7.072;2023-11-21T01:52:15;16.10;;;7.63;;
8139;SDS011;4111;50.972;7.072;2023-11-21T01:54:41;10.73;;;7.00;;
8139;SDS011;4111;50.972;7.072;2023-11-21T01:57:08;11.07;;;7.03;;
8139;SDS011;4111;50.972;7.072;2023-11-21T01:59:36;9.47;;;7.20;;
8139;SDS011;4111;50.972;7.072;2023-11-21T02:02:04;11.37;;;7.03;;
8139;SDS011;4111;50.972;7.072;2023-11-21T02:04:32;12.40;;;7.23;;
8139;SDS011;4111;50.972;7.072;2023-11-21T02:06:59;9.90;;;7.10;;
8139;SDS011;4111;50.972;7.072;2023-11-21T02:09:29;11.00;;;6.37;;
8139;SDS011;4111;50.972;7.072;2023-11-21T02:12:00;11.90;;;7.57;;
8139;SDS011;4111;50.972;7.072;2023-11-21T02:14:27;9.67;;;6.73;;
8139;SDS011;4111;50.972;7.072;2023-11-21T02:16:54;9.63;;;6.87;;
8139;SDS011;4111;50.972;7.072;2023-11-21T02:19:24;14.73;;;7.53;;
8139;SDS011;4111;50.972;7.072;2023-11-21T02:21:54;10.57;;;7.13;;
8139;SDS011;4111;50.972;7.072;2023-11-21T02:24:26;10.17;;;7.17;;
8139;SDS011;4111;50.972;7.072;2023-11-21T02:26:53;10.20;;;7.00;;
8139;SDS011;4111;50.972;7.072;2023-11-21T02:29:20;10.20;;;7.10;;
8139;SDS011;4111;50.972;7.072;2023-11-21T02:31:54;9.57;;;6.90;;
8139;SDS011;4111;50.972;7.072;2023-11-21T02:34:21;9.57;;;7.13;;
8139;SDS011;4111;50.972;7.072;2023-11-21T02:36:49;11.23;;;7.37;;
8139;SDS011;4111;50.972;7.072;2023-11-21T02:39:15;12.57;;;7.20;;
8139;SDS011;4111;50.972;7.072;2023-11-21T02:41:48;11.47;;;7.27;;
8139;SDS011;4111;50.972;7.072;2023-11-21T02:44:15;13.70;;;7.83;;
8139;SDS011;4111;50.972;7.072;2023-11-21T02:46:41;10.63;;;7.47;;
8139;SDS011;4111;50.972;7.072;2023-11-21T02:49:08;9.70;;;7.30;;
8139;SDS011;4111;50.972;7.072;2023-11-21T02:51:36;9.03;;;7.57;;
8139;SDS011;4111;50.972;7.072;2023-11-21T02:54:05;10.17;;;7.67;;
8139;SDS011;4111;50.972;7.072;2023-11-21T02:56:32;10.30;;;7.57;;
8139;SDS011;4111;50.972;7.072;2023-11-21T02:58:59;13.40;;;8.30;;
8139;SDS011;4111;50.972;7.072;2023-11-21T03:01:26;11.93;;;8.03;;
8139;SDS011;4111;50.972;7.072;2023-11-21T03:03:54;9.93;;;7.97;;
8139;SDS011;4111;50.972;7.072;2023-11-21T03:06:22;8.73;;;7.83;;
8139;SDS011;4111;50.972;7.072;2023-11-21T03:08:48;11.30;;;7.90;;
8139;SDS011;4111;50.972;7.072;2023-11-21T03:11:15;9.93;;;7.47;;
8139;SDS011;4111;50.972;7.072;2023-11-21T03:13:42;9.07;;;7.17;;
8139;SDS011;4111;50.972;7.072;2023-11-21T03:16:10;10.93;;;8.17;;
8139;SDS011;4111;50.972;7.072;2023-11-21T03:18:40;10.70;;;7.77;;
8139;SDS011;4111;50.972;7.072;2023-11-21T03:21:07;13.00;;;7.93;;
8139;SDS011;4111;50.972;7.072;2023-11-21T03:23:35;12.77;;;9.10;;
8139;SDS011;4111;50.972;7.072;2023-11-21T03:26:02;12.57;;;9.17;;
8139;SDS011;4111;50.972;7.072;2023-11-21T03:28:29;12.30;;;8.93;;
8139;SDS011;4111;50.972;7.072;2023-11-21T03:30:56;14.43;;;9.43;;
8139;SDS011;4111;50.972;7.072;2023-11-21T03:33:22;12.83;;;9.80;;
8139;SDS011;4111;50.972;7.072;2023-11-21T03:35:49;14.07;;;9.57;;
8139;SDS011;4111;50.972;7.072;2023-11-21T03:38:15;14.77;;;9.27;;
8139;SDS011;4111;50.972;7.072;2023-11-21T03:40:42;14.83;;;9.80;;
8139;SDS011;4111;50.972;7.072;2023-11-21T03:43:08;18.60;;;9.77;;
8139;SDS011;4111;50.972;7.072;2023-11-21T03:45:35;12.80;;;9.47;;
8139;SDS011;4111;50.972;7.072;2023-11-21T03:48:01;18.67;;;9.90;;
8139;SDS011;4111;50.972;7.072;2023-11-21T03:50:29;15.70;;;9.80;;
8139;SDS011;4111;50.972;7.072;2023-11-21T03:52:55;16.07;;;9.63;;
8139;SDS011;4111;50.972;7.072;2023-11-21T03:55:23;16.03;;;9.27;;
8139;SDS011;4111;50.972;7.072;2023-11-21T03:57:51;16.70;;;9.80;;
8139;SDS011;4111;50.972;7.072;2023-11-21T04:00:18;12.73;;;9.53;;
8139;SDS011;4111;50.972;7.072;2023-11-21T04:02:46;15.67;;;10.30;;
8139;SDS011;4111;50.972;7.072;2023-11-21T04:05:12;14.30;;;9.17;;
8139;SDS011;4111;50.972;7.072;2023-11-21T04:07:39;11.67;;;9.43;;
8139;SDS011;4111;50.972;7.072;2023-11-21T04:10:06;14.27;;;9.83;;
8139;SDS011;4111;50.972;7.072;2023-11-21T04:12:35;13.67;;;9.83;;
8139;SDS011;4111;50.972;7.072;2023-11-21T04:15:03;12.33;;;9.13;;
8139;SDS011;4111;50.972;7.072;2023-11-21T04:17:29;14.23;;;9.37;;
8139;SDS011;4111;50.972;7.072;2023-11-21T04:19:57;14.37;;;9.37;;
8139;SDS011;4111;50.972;7.072;2023-11-21T04:22:23;17.20;;;8.70;;
8139;SDS011;4111;50.972;7.072;2023-11-21T04:24:50;16.27;;;9.93;;
8139;SDS011;4111;50.972;7.072;2023-11-21T04:27:16;13.13;;;9.07;;
8139;SDS011;4111;50.972;7.072;2023-11-21T04:29:44;14.27;;;9.83;;
8139;SDS011;4111;50.972;7.072;2023-11-21T04:32:10;14.80;;;9.60;;
8139;SDS011;4111;50.972;7.072;2023-11-21T04:34:37;14.57;;;9.90;;
8139;SDS011;4111;50.972;7.072;2023-11-21T04:37:03;17.87;;;9.70;;
8139;SDS011;4111;50.972;7.072;2023-11-21T04:39:32;13.23;;;9.17;;
8139;SDS011;4111;50.972;7.072;2023-11-21T04:41:59;14.80;;;9.53;;
8139;SDS011;4111;50.972;7.072;2023-11-21T04:44:25;13.57;;;9.73;;
8139;SDS011;4111;50.972;7.072;2023-11-21T04:46:51;11.07;;;8.40;;
8139;SDS011;4111;50.972;7.072;2023-11-21T04:49:18;11.40;;;7.73;;
8139;SDS011;4111;50.972;7.072;2023-11-21T04:51:44;12.20;;;8.60;;
8139;SDS011;4111;50.972;7.072;2023-11-21T04:54:11;14.10;;;8.53;;
8139;SDS011;4111;50.972;7.072;2023-11-21T04:56:37;13.40;;;9.00;;
8139;SDS011;4111;50.972;7.072;2023-11-21T04:59:03;13.77;;;9.50;;
8139;SDS011;4111;50.972;7.072;2023-11-21T05:01:30;15.20;;;8.97;;
8139;SDS011;4111;50.972;7.072;2023-11-21T05:03:57;14.73;;;9.60;;
8139;SDS011;4111;50.972;7.072;2023-11-21T05:06:23;13.60;;;10.47;;
8139;SDS011;4111;50.972;7.072;2023-11-21T05:08:50;13.77;;;8.20;;
8139;SDS011;4111;50.972;7.072;2023-11-21T05:11:23;15.27;;;8.70;;
8139;SDS011;4111;50.972;7.072;2023-11-21T05:13:53;14.60;;;8.90;;
8139;SDS011;4111;50.972;7.072;2023-11-21T05:16:19;12.20;;;8.90;;
8139;SDS011;4111;50.972;7.072;2023-11-21T05:18:46;16.30;;;9.80;;
8139;SDS011;4111;50.972;7.072;2023-11-21T05:21:13;14.27;;;8.77;;
8139;SDS011;4111;50.972;7.072;2023-11-21T05:23:39;15.00;;;9.83;;
8139;SDS011;4111;50.972;7.072;2023-11-21T05:26:06;13.83;;;9.63;;
8139;SDS011;4111;50.972;7.072;2023-11-21T05:28:33;16.63;;;9.30;;
8139;SDS011;4111;50.972;7.072;2023-11-21T05:31:00;12.03;;;9.33;;
8139;SDS011;4111;50.972;7.072;2023-11-21T05:33:41;12.23;;;8.57;;
8139;SDS011;4111;50.972;7.072;2023-11-21T05:36:08;10.67;;;9.10;;
8139;SDS011;4111;50.972;7.072;2023-11-21T05:38:36;10.67;;;8.37;;
8139;SDS011;4111;50.972;7.072;2023-11-21T05:41:02;13.20;;;8.73;;
8139;SDS011;4111;50.972;7.072;2023-11-21T05:43:30;17.70;;;8.53;;
8139;SDS011;4111;50.972;7.072;2023-11-21T05:45:58;12.90;;;8.50;;
8139;SDS011;4111;50.972;7.072;2023-11-21T05:48:24;11.63;;;8.90;;
8139;SDS011;4111;50.972;7.072;2023-11-21T05:50:52;11.30;;;8.33;;
8139;SDS011;4111;50.972;7.072;2023-11-21T05:53:18;11.07;;;8.63;;
8139;SDS011;4111;50.972;7.072;2023-11-21T05:55:45;11.30;;;8.93;;
8139;SDS011;4111;50.972;7.072;2023-11-21T05:58:11;15.07;;;8.93;;
8139;SDS011;4111;50.972;7.072;2023-11-21T06:00:39;12.60;;;8.60;;
8139;SDS011;4111;50.972;7.072;2023-11-21T06:03:06;17.50;;;9.00;;
8139;SDS011;4111;50.972;7.072;2023-11-21T06:05:32;19.83;;;9.10;;
8139;SDS011;4111;50.972;7.072;2023-11-21T06:07:59;17.30;;;8.93;;
8139;SDS011;4111;50.972;7.072;2023-11-21T06:10:27;14.77;;;9.33;;
8139;SDS011;4111;50.972;7.072;2023-11-21T06:12:55;14.60;;;9.93;;
8139;SDS011;4111;50.972;7.072;2023-11-21T06:15:21;14.47;;;9.60;;
8139;SDS011;4111;50.972;7.072;2023-11-21T06:17:49;14.13;;;9.90;;
8139;SDS011;4111;50.972;7.072;2023-11-21T06:20:20;15.43;;;9.93;;
8139;SDS011;4111;50.972;7.072;2023-11-21T06:22:48;19.57;;;11.17;;
8139;SDS011;4111;50.972;7.072;2023-11-21T06:25:16;20.53;;;10.90;;
8139;SDS011;4111;50.972;7.072;2023-11-21T06:27:44;17.33;;;11.37;;
8139;SDS011;4111;50.972;7.072;2023-11-21T06:30:12;18.83;;;11.80;;
8139;SDS011;4111;50.972;7.072;2023-11-21T06:32:40;19.70;;;11.40;;
8139;SDS011;4111;50.972;7.072;2023-11-21T06:35:11;21.67;;;13.00;;
8139;SDS011;4111;50.972;7.072;2023-11-21T06:37:39;23.77;;;16.00;;
8139;SDS011;4111;50.972;7.072;2023-11-21T06:40:06;28.67;;;15.10;;
8139;SDS011;4111;50.972;7.072;2023-11-21T06:42:33;19.97;;;12.93;;
8139;SDS011;4111;50.972;7.072;2023-11-21T06:45:00;22.03;;;13.30;;
8139;SDS011;4111;50.972;7.072;2023-11-21T06:47:30;25.50;;;12.23;;
8139;SDS011;4111;50.972;7.072;2023-11-21T06:49:57;17.47;;;11.97;;
8139;SDS011;4111;50.972;7.072;2023-11-21T06:52:26;23.67;;;13.60;;
8139;SDS011;4111;50.972;7.072;2023-11-21T06:54:53;23.10;;;12.77;;
8139;SDS011;4111;50.972;7.072;2023-11-21T06:57:19;25.20;;;12.37;;
8139;SDS011;4111;50.972;7.072;2023-11-21T06:59:47;20.90;;;13.03;;
8139;SDS011;4111;50.972;7.072;2023-11-21T07:02:14;21.93;;;13.40;;
8139;SDS011;4111;50.972;7.072;2023-11-21T07:04:40;20.03;;;13.77;;
8139;SDS011;4111;50.972;7.072;2023-11-21T07:07:07;23.30;;;14.77;;
8139;SDS011;4111;50.972;7.072;2023-11-21T07:09:33;24.53;;;14.03;;
8139;SDS011;4111;50.972;7.072;2023-11-21T07:12:03;23.73;;;13.57;;
8139;SDS011;4111;50.972;7.072;2023-11-21T07:14:32;17.67;;;12.80;;
8139;SDS011;4111;50.972;7.072;2023-11-21T07:17:01;20.67;;;13.83;;
8139;SDS011;4111;50.972;7.072;2023-11-21T07:19:28;20.63;;;14.73;;
8139;SDS011;4111;50.972;7.072;2023-11-21T07:21:56;18.80;;;14.33;;
8139;SDS011;4111;50.972;7.072;2023-11-21T07:24:24;26.00;;;14.73;;
8139;SDS011;4111;50.972;7.072;2023-11-21T07:26:52;27.53;;;13.47;;
8139;SDS011;4111;50.972;7.072;2023-11-21T07:29:23;23.40;;;14.87;;
8139;SDS011;4111;50.972;7.072;2023-11-21T07:31:52;24.17;;;14.40;;
8139;SDS011;4111;50.972;7.072;2023-11-21T07:34:20;24.77;;;14.57;;
8139;SDS011;4111;50.972;7.072;2023-11-21T07:36:48;23.20;;;15.23;;
8139;SDS011;4111;50.972;7.072;2023-11-21T07:39:14;26.60;;;15.03;;
8139;SDS011;4111;50.972;7.072;2023-11-21T07:41:42;24.07;;;14.13;;
8139;SDS011;4111;50.972;7.072;2023-11-21T07:44:16;29.83;;;14.63;;
8139;SDS011;4111;50.972;7.072;2023-11-21T07:46:43;27.43;;;15.30;;
8139;SDS011;4111;50.972;7.072;2023-11-21T07:49:10;22.63;;;14.23;;
8139;SDS011;4111;50.972;7.072;2023-11-21T07:51:38;29.50;;;14.47;;
8139;SDS011;4111;50.972;7.072;2023-11-21T07:54:04;27.80;;;16.07;;
8139;SDS011;4111;50.972;7.072;2023-11-21T07:56:32;33.00;;;15.57;;
8139;SDS011;4111;50.972;7.072;2023-11-21T07:59:07;34.90;;;17.70;;
8139;SDS011;4111;50.972;7.072;2023-11-21T08:01:34;23.07;;;15.70;;
8139;SDS011;4111;50.972;7.072;2023-11-21T08:04:01;25.40;;;14.70;;
8139;SDS011;4111;50.972;7.072;2023-11-21T08:06:31;20.97;;;13.27;;
8139;SDS011;4111;50.972;7.072;2023-11-21T08:08:57;27.47;;;13.47;;
8139;SDS011;4111;50.972;7.072;2023-11-21T08:11:24;24.83;;;13.90;;
8139;SDS011;4111;50.972;7.072;2023-11-21T08:13:50;25.40;;;14.87;;
8139;SDS011;4111;50.972;7.072;2023-11-21T08:16:17;27.37;;;14.97;;
8139;SDS011;4111;50.972;7.072;2023-11-21T08:18:44;28.10;;;15.10;;
8139;SDS011;4111;50.972;7.072;2023-11-21T08:21:12;32.27;;;16.37;;
8139;SDS011;4111;50.972;7.072;2023-11-21T08:23:39;31.23;;;15.30;;
8139;SDS011;4111;50.972;7.072;2023-11-21T08:26:05;32.03;;;17.57;;
8139;SDS011;4111;50.972;7.072;2023-11-21T08:28:32;36.73;;;18.50;;
8139;SDS011;4111;50.972;7.072;2023-11-21T08:31:00;33.07;;;18.20;;
8139;SDS011;4111;50.972;7.072;2023-11-21T08:33:27;31.90;;;17.70;;
8139;SDS011;4111;50.972;7.072;2023-11-21T08:35:53;34.33;;;18.73;;
8139;SDS011;4111;50.972;7.072;2023-11-21T08:38:20;39.13;;;19.10;;
8139;SDS011;4111;50.972;7.072;2023-11-21T08:40:46;37.20;;;19.43;;
8139;SDS011;4111;50.972;7.072;2023-11-21T08:43:13;35.20;;;19.53;;
8139;SDS011;4111;50.972;7.072;2023-11-21T08:45:40;31.47;;;19.87;;
8139;SDS011;4111;50.972;7.072;2023-11-21T08:48:07;35.43;;;19.00;;
8139;SDS011;4111;50.972;7.072;2023-11-21T08:50:35;40.17;;;20.73;;
8139;SDS011;4111;50.972;7.072;2023-11-21T08:53:01;43.17;;;22.33;;
8139;SDS011;4111;50.972;7.072;2023-11-21T08:55:28;36.67;;;22.33;;
8139;SDS011;4111;50.972;7.072;2023-11-21T08:57:54;39.83;;;22.73;;
8139;SDS011;4111;50.972;7.072;2023-11-21T09:00:23;40.17;;;21.37;;
8139;SDS011;4111;50.972;7.072;2023-11-21T09:02:50;39.77;;;21.87;;
8139;SDS011;4111;50.972;7.072;2023-11-21T09:05:16;37.57;;;22.57;;
8139;SDS011;4111;50.972;7.072;2023-11-21T09:07:43;40.27;;;23.17;;
8139;SDS011;4111;50.972;7.072;2023-11-21T09:10:12;38.50;;;22.37;;
8139;SDS011;4111;50.972;7.072;2023-11-21T09:12:39;38.90;;;22.33;;
8139;SDS011;4111;50.972;7.072;2023-11-21T09:15:06;43.27;;;22.73;;
8139;SDS011;4111;50.972;7.072;2023-11-21T09:17:35;42.30;;;22.57;;
8139;SDS011;4111;50.972;7.072;2023-11-21T09:20:02;39.53;;;22.90;;
8139;SDS011;4111;50.972;7.072;2023-11-21T09:22:32;37.07;;;21.63;;
8139;SDS011;4111;50.972;7.072;2023-11-21T09:24:59;39.73;;;21.50;;
8139;SDS011;4111;50.972;7.072;2023-11-21T09:27:26;40.47;;;22.43;;
8139;SDS011;4111;50.972;7.072;2023-11-21T09:29:52;43.23;;;22.17;;
8139;SDS011;4111;50.972;7.072;2023-11-21T09:32:21;40.40;;;23.43;;
8139;SDS011;4111;50.972;7.072;2023-11-21T09:34:48;40.70;;;23.53;;
8139;SDS011;4111;50.972;7.072;2023-11-21T09:37:16;46.23;;;25.07;;
8139;SDS011;4111;50.972;7.072;2023-11-21T09:39:42;46.13;;;23.53;;
8139;SDS011;4111;50.972;7.072;2023-11-21T09:42:13;39.63;;;23.47;;
8139;SDS011;4111;50.972;7.072;2023-11-21T09:47:35;41.67;;;23.20;;
8139;SDS011;4111;50.972;7.072;2023-11-21T09:50:06;43.67;;;23.13;;
8139;SDS011;4111;50.972;7.072;2023-11-21T09:52:48;52.50;;;23.93;;
8139;SDS011;4111;50.972;7.072;2023-11-21T09:55:22;45.27;;;23.37;;
8139;SDS011;4111;50.972;7.072;2023-11-21T09:57:52;44.07;;;24.43;;
8139;SDS011;4111;50.972;7.072;2023-11-21T10:00:20;46.30;;;23.57;;
8139;SDS011;4111;50.972;7.072;2023-11-21T10:02:49;46.73;;;25.27;;
8139;SDS011;4111;50.972;7.072;2023-11-21T10:05:19;52.00;;;24.83;;
8139;SDS011;4111;50.972;7.072;2023-11-21T10:07:50;51.13;;;26.43;;
8139;SDS011;4111;50.972;7.072;2023-11-21T10:10:20;52.57;;;26.47;;
8139;SDS011;4111;50.972;7.072;2023-11-21T10:12:50;53.10;;;27.30;;
8139;SDS011;4111;50.972;7.072;2023-11-21T10:15:23;49.43;;;26.27;;
8139;SDS011;4111;50.972;7.072;2023-11-21T10:17:53;47.40;;;26.17;;
8139;SDS011;4111;50.972;7.072;2023-11-21T10:20:22;53.17;;;27.73;;
8139;SDS011;4111;50.972;7.072;2023-11-21T10:22:50;50.83;;;28.67;;
8139;SDS011;4111;50.972;7.072;2023-11-21T10:25:16;55.23;;;28.50;;
8139;SDS011;4111;50.972;7.072;2023-11-21T10:27:48;54.90;;;29.17;;
8139;SDS011;4111;50.972;7.072;2023-11-21T10:30:18;53.13;;;30.40;;
8139;SDS011;4111;50.972;7.072;2023-11-21T10:32:44;54.53;;;30.67;;
8139;SDS011;4111;50.972;7.072;2023-11-21T10:35:11;58.10;;;31.70;;
8139;SDS011;4111;50.972;7.072;2023-11-21T10:37:41;55.80;;;31.30;;
8139;SDS011;4111;50.972;7.072;2023-11-21T10:40:10;54.67;;;31.70;;
8139;SDS011;4111;50.972;7.072;2023-11-21T10:42:40;54.87;;;30.70;;
8139;SDS011;4111;50.972;7.072;2023-11-21T10:45:08;51.73;;;30.47;;
8139;SDS011;4111;50.972;7.072;2023-11-21T10:47:41;51.53;;;30.67;;
8139;SDS011;4111;50.972;7.072;2023-11-21T10:50:08;50.47;;;28.87;;
8139;SDS011;4111;50.972;7.072;2023-11-21T10:52:39;48.77;;;28.30;;
8139;SDS011;4111;50.972;7.072;2023-11-21T10:55:16;48.67;;;27.90;;
8139;SDS011;4111;50.972;7.072;2023-11-21T10:57:52;48.97;;;27.97;;
8139;SDS011;4111;50.972;7.072;2023-11-21T11:00:19;53.07;;;28.30;;
8139;SDS011;4111;50.972;7.072;2023-11-21T11:02:51;53.03;;;29.43;;
8139;SDS011;4111;50.972;7.072;2023-11-21T11:05:19;51.97;;;28.73;;
8139;SDS011;4111;50.972;7.072;2023-11-21T11:07:50;54.60;;;31.37;;
8139;SDS011;4111;50.972;7.072;2023-11-21T11:10:26;53.70;;;30.30;;
8139;SDS011;4111;50.972;7.072;2023-11-21T11:12:54;58.27;;;31.73;;
8139;SDS011;4111;50.972;7.072;2023-11-21T11:15:21;60.33;;;32.70;;
8139;SDS011;4111;50.972;7.072;2023-11-21T11:17:48;60.87;;;33.53;;
8139;SDS011;4111;50.972;7.072;2023-11-21T11:20:15;52.30;;;31.90;;
8139;SDS011;4111;50.972;7.072;2023-11-21T11:22:48;46.00;;;30.03;;
8139;SDS011;4111;50.972;7.072;2023-11-21T11:28:27;46.07;;;27.33;;
8139;SDS011;4111;50.972;7.072;2023-11-21T11:31:18;44.33;;;28.40;;
8139;SDS011;4111;50.972;7.072;2023-11-21T11:33:56;44.90;;;27.57;;
8139;SDS011;4111;50.972;7.072;2023-11-21T11:36:26;40.63;;;26.43;;
8139;SDS011;4111;50.972;7.072;2023-11-21T11:38:57;43.97;;;24.77;;
8139;SDS011;4111;50.972;7.072;2023-11-21T11:41:25;35.77;;;24.70;;
8139;SDS011;4111;50.972;7.072;2023-11-21T11:43:53;40.27;;;24.10;;
8139;SDS011;4111;50.972;7.072;2023-11-21T11:46:20;36.10;;;24.53;;
8139;SDS011;4111;50.972;7.072;2023-11-21T11:48:56;43.20;;;24.70;;
8139;SDS011;4111;50.972;7.072;2023-11-21T11:51:29;37.67;;;23.67;;
8139;SDS011;4111;50.972;7.072;2023-11-21T11:53:57;41.77;;;22.70;;
8139;SDS011;4111;50.972;7.072;2023-11-21T11:56:31;45.03;;;24.47;;
8139;SDS011;4111;50.972;7.072;2023-11-21T11:59:01;35.10;;;21.47;;
8139;SDS011;4111;50.972;7.072;2023-11-21T12:01:29;37.80;;;23.27;;
8139;SDS011;4111;50.972;7.072;2023-11-21T12:04:41;36.67;;;22.03;;
8139;SDS011;4111;50.972;7.072;2023-11-21T12:06:52;42.60;;;23.90;;
8139;SDS011;4111;50.972;7.072;2023-11-21T12:09:23;38.87;;;22.90;;
8139;SDS011;4111;50.972;7.072;2023-11-21T12:11:52;40.63;;;23.60;;
8139;SDS011;4111;50.972;7.072;2023-11-21T12:14:22;37.53;;;23.57;;
8139;SDS011;4111;50.972;7.072;2023-11-21T12:16:49;38.43;;;24.57;;
8139;SDS011;4111;50.972;7.072;2023-11-21T12:19:16;41.00;;;23.47;;
8139;SDS011;4111;50.972;7.072;2023-11-21T12:21:42;41.83;;;24.53;;
8139;SDS011;4111;50.972;7.072;2023-11-21T12:24:10;40.63;;;23.87;;
8139;SDS011;4111;50.972;7.072;2023-11-21T12:26:40;42.77;;;23.87;;
8139;SDS011;4111;50.972;7.072;2023-11-21T12:29:07;43.60;;;24.93;;
8139;SDS011;4111;50.972;7.072;2023-11-21T12:31:36;42.23;;;25.37;;
8139;SDS011;4111;50.972;7.072;2023-11-21T12:34:04;42.23;;;24.00;;
8139;SDS011;4111;50.972;7.072;2023-11-21T12:36:32;42.80;;;25.17;;
8139;SDS011;4111;50.972;7.072;2023-11-21T12:39:02;41.03;;;23.43;;
8139;SDS011;4111;50.972;7.072;2023-11-21T12:41:29;39.63;;;23.60;;
8139;SDS011;4111;50.972;7.072;2023-11-21T12:43:56;40.27;;;23.93;;
8139;SDS011;4111;50.972;7.072;2023-11-21T12:46:23;40.93;;;25.40;;
8139;SDS011;4111;50.972;7.072;2023-11-21T12:48:53;43.20;;;24.80;;
8139;SDS011;4111;50.972;7.072;2023-11-21T12:51:22;42.27;;;23.77;;
8139;SDS011;4111;50.972;7.072;2023-11-21T12:53:58;42.37;;;24.03;;
8139;SDS011;4111;50.972;7.072;2023-11-21T12:56:25;42.10;;;24.60;;
8139;SDS011;4111;50.972;7.072;2023-11-21T12:58:53;44.13;;;23.80;;
8139;SDS011;4111;50.972;7.072;2023-11-21T13:01:20;41.67;;;24.13;;
8139;SDS011;4111;50.972;7.072;2023-11-21T13:03:49;45.27;;;23.83;;
8139;SDS011;4111;50.972;7.072;2023-11-21T13:06:19;40.00;;;23.67;;
8139;SDS011;4111;50.972;7.072;2023-11-21T13:08:47;36.53;;;23.63;;
8139;SDS011;4111;50.972;7.072;2023-11-21T13:11:14;38.13;;;22.03;;
8139;SDS011;4111;50.972;7.072;2023-11-21T13:13:41;40.17;;;22.87;;
8139;SDS011;4111;50.972;7.072;2023-11-21T13:16:10;36.60;;;21.23;;
8139;SDS011;4111;50.972;7.072;2023-11-21T13:18:36;36.70;;;21.63;;
8139;SDS011;4111;50.972;7.072;2023-11-21T13:21:08;41.70;;;23.00;;
8139;SDS011;4111;50.972;7.072;2023-11-21T13:23:43;40.53;;;22.70;;
8139;SDS011;4111;50.972;7.072;2023-11-21T13:26:12;37.47;;;22.40;;
8139;SDS011;4111;50.972;7.072;2023-11-21T13:28:40;43.27;;;22.40;;
8139;SDS011;4111;50.972;7.072;2023-11-21T13:31:12;44.37;;;22.37;;
8139;SDS011;4111;50.972;7.072;2023-11-21T13:33:48;37.00;;;21.20;;
8139;SDS011;4111;50.972;7.072;2023-11-21T13:36:22;35.80;;;21.57;;
8139;SDS011;4111;50.972;7.072;2023-11-21T13:38:50;35.13;;;20.90;;
8139;SDS011;4111;50.972;7.072;2023-11-21T13:41:18;37.13;;;20.20;;
8139;SDS011;4111;50.972;7.072;2023-11-21T13:43:45;41.10;;;19.50;;
8139;SDS011;4111;50.972;7.072;2023-11-21T13:46:15;32.80;;;17.93;;
8139;SDS011;4111;50.972;7.072;2023-11-21T13:48:48;29.33;;;16.67;;
8139;SDS011;4111;50.972;7.072;2023-11-21T13:51:24;35.00;;;18.00;;
8139;SDS011;4111;50.972;7.072;2023-11-21T13:54:10;34.73;;;18.37;;
8139;SDS011;4111;50.972;7.072;2023-11-21T13:56:37;38.13;;;18.90;;
8139;SDS011;4111;50.972;7.072;2023-11-21T13:59:05;30.70;;;18.70;;
8139;SDS011;4111;50.972;7.072;2023-11-21T14:01:54;31.07;;;19.43;;
8139;SDS011;4111;50.972;7.072;2023-11-21T14:04:22;31.53;;;17.53;;
8139;SDS011;4111;50.972;7.072;2023-11-21T14:07:07;36.80;;;19.63;;
8139;SDS011;4111;50.972;7.072;2023-11-21T14:09:58;37.57;;;20.20;;
8139;SDS011;4111;50.972;7.072;2023-11-21T14:12:24;40.37;;;20.43;;
8139;SDS011;4111;50.972;7.072;2023-11-21T14:14:51;37.13;;;19.97;;
8139;SDS011;4111;50.972;7.072;2023-11-21T14:17:17;37.90;;;18.53;;
8139;SDS011;4111;50.972;7.072;2023-11-21T14:19:44;34.70;;;18.63;;
8139;SDS011;4111;50.972;7.072;2023-11-21T14:22:11;33.23;;;19.10;;
8139;SDS011;4111;50.972;7.072;2023-11-21T14:24:37;34.20;;;18.87;;
8139;SDS011;4111;50.972;7.072;2023-11-21T14:27:09;31.63;;;18.03;;
8139;SDS011;4111;50.972;7.072;2023-11-21T14:29:36;37.50;;;19.47;;
8139;SDS011;4111;50.972;7.072;2023-11-21T14:32:06;42.17;;;19.60;;
8139;SDS011;4111;50.972;7.072;2023-11-21T14:34:34;35.17;;;19.90;;
8139;SDS011;4111;50.972;7.072;2023-11-21T14:37:00;38.23;;;19.37;;
8139;SDS011;4111;50.972;7.072;2023-11-21T14:39:29;41.67;;;20.00;;
8139;SDS011;4111;50.972;7.072;2023-11-21T14:41:56;33.77;;;18.53;;
8139;SDS011;4111;50.972;7.072;2023-11-21T14:44:24;36.15;;;21.10;;
8139;SDS011;4111;50.972;7.072;2023-11-21T14:46:53;39.47;;;20.03;;
8139;SDS011;4111;50.972;7.072;2023-11-21T14:49:24;38.90;;;21.70;;
8139;SDS011;4111;50.972;7.072;2023-11-21T14:51:53;41.67;;;20.30;;
8139;SDS011;4111;50.972;7.072;2023-11-21T14:54:27;38.83;;;19.90;;
8139;SDS011;4111;50.972;7.072;2023-11-21T14:57:09;38.80;;;19.83;;
8139;SDS011;4111;50.972;7.072;2023-11-21T14:59:45;42.67;;;20.60;;
8139;SDS011;4111;50.972;7.072;2023-11-21T15:02:14;38.63;;;20.60;;
8139;SDS011;4111;50.972;7.072;2023-11-21T15:04:42;39.67;;;21.17;;
8139;SDS011;4111;50.972;7.072;2023-11-21T15:07:09;37.47;;;21.83;;
8139;SDS011;4111;50.972;7.072;2023-11-21T15:09:39;47.90;;;23.33;;
8139;SDS011;4111;50.972;7.072;2023-11-21T15:12:09;42.40;;;22.80;;